createdAt,value
2022-10-22T00:00:12.852Z,98747.25
2022-10-22T00:02:39.739Z,98754.84
2022-10-22T00:05:07.373Z,98761.09
2022-10-22T00:07:34.435Z,98741.22
2022-10-22T00:10:01.382Z,98738.59
2022-10-22T00:12:28.650Z,98741.81
2022-10-22T00:14:55.588Z,98748.63
2022-10-22T00:17:22.452Z,98732.34
2022-10-22T00:19:49.221Z,98730.34
2022-10-22T00:22:16.590Z,98721.06
2022-10-22T00:24:43.465Z,98750.03
2022-10-22T00:27:11.843Z,98744.81
2022-10-22T00:29:38.899Z,98728.38
2022-10-22T00:32:06.875Z,98724.22
2022-10-22T00:34:34.143Z,98734.84
2022-10-22T00:37:00.968Z,98732.88
2022-10-22T00:39:28.430Z,98726.72
2022-10-22T00:41:57.498Z,98736.50
2022-10-22T00:45:11.133Z,98723.44
2022-10-22T00:47:40.828Z,98720.13
2022-10-22T00:50:16.011Z,98699.06
2022-10-22T00:52:43.302Z,98717.53
2022-10-22T00:55:10.425Z,98706.34
2022-10-22T00:57:37.471Z,98690.38
2022-10-22T01:00:06.121Z,98703.00
2022-10-22T01:02:33.478Z,98677.28
2022-10-22T01:05:00.297Z,98706.47
2022-10-22T01:07:27.065Z,98699.78
2022-10-22T01:10:14.051Z,98714.38
2022-10-22T01:12:40.912Z,98726.63
2022-10-22T01:15:37.712Z,98724.66
2022-10-22T01:18:38.358Z,98735.22
2022-10-22T01:21:30.782Z,98733.00
2022-10-22T01:24:15.534Z,98734.25
2022-10-22T01:26:57.392Z,98733.22
2022-10-22T01:29:53.790Z,98713.59
2022-10-22T01:32:26.209Z,98722.88
2022-10-22T01:35:04.961Z,98711.94
2022-10-22T01:37:38.643Z,98717.16
2022-10-22T01:40:07.893Z,98720.59
2022-10-22T01:42:34.730Z,98702.16
2022-10-22T01:45:01.599Z,98712.88
2022-10-22T01:48:03.640Z,98695.44
2022-10-22T01:50:41.057Z,98684.16
2022-10-22T01:53:23.937Z,98678.94
2022-10-22T01:56:27.712Z,98684.06
2022-10-22T01:59:24.103Z,98686.66
2022-10-22T02:02:08.879Z,98686.88
2022-10-22T02:04:59.019Z,98683.44
2022-10-22T02:07:32.587Z,98682.94
2022-10-22T02:10:01.111Z,98677.31
2022-10-22T02:12:30.874Z,98699.00
2022-10-22T02:14:59.095Z,98697.78
2022-10-22T02:17:29.249Z,98712.38
2022-10-22T02:20:11.021Z,98697.38
2022-10-22T02:22:38.419Z,98703.09
2022-10-22T02:25:06.834Z,98714.06
2022-10-22T02:27:47.360Z,98733.97
2022-10-22T02:30:18.636Z,98723.88
2022-10-22T02:33:30.538Z,98736.31
2022-10-22T02:35:58.850Z,98732.63
2022-10-22T02:38:27.282Z,98733.69
2022-10-22T02:40:54.171Z,98736.06
2022-10-22T02:43:24.581Z,98717.22
2022-10-22T02:45:51.710Z,98735.56
2022-10-22T02:48:18.486Z,98730.34
2022-10-22T02:50:45.353Z,98728.88
2022-10-22T02:53:12.125Z,98748.16
2022-10-22T02:55:38.903Z,98731.38
2022-10-22T02:58:05.652Z,98736.31
2022-10-22T03:00:32.661Z,98713.69
2022-10-22T03:02:59.497Z,98736.53
2022-10-22T03:05:26.313Z,98739.31
2022-10-22T03:07:53.146Z,98736.53
2022-10-22T03:10:19.966Z,98757.47
2022-10-22T03:12:46.733Z,98747.03
2022-10-22T03:15:13.488Z,98743.91
2022-10-22T03:17:40.516Z,98742.88
2022-10-22T03:20:08.207Z,98740.38
2022-10-22T03:22:36.474Z,98725.16
2022-10-22T03:25:12.032Z,98707.34
2022-10-22T03:27:40.499Z,98713.91
2022-10-22T03:30:08.918Z,98708.47
2022-10-22T03:32:35.699Z,98708.34
2022-10-22T03:35:02.497Z,98707.28
2022-10-22T03:37:30.181Z,98708.00
2022-10-22T03:39:57.015Z,98704.69
2022-10-22T03:42:24.543Z,98691.63
2022-10-22T03:44:51.641Z,98668.94
2022-10-22T03:47:18.600Z,98690.81
2022-10-22T03:49:45.454Z,98696.34
2022-10-22T03:52:15.056Z,98712.72
2022-10-22T03:54:42.214Z,98694.41
2022-10-22T03:57:10.285Z,98701.28
2022-10-22T03:59:40.624Z,98716.28
2022-10-22T04:02:07.842Z,98707.22
2022-10-22T04:04:35.522Z,98709.28
2022-10-22T04:07:02.533Z,98713.38
2022-10-22T04:09:32.722Z,98702.50
2022-10-22T04:12:00.174Z,98698.34
2022-10-22T04:14:26.983Z,98719.31
2022-10-22T04:16:54.712Z,98697.16
2022-10-22T04:19:21.481Z,98692.59
2022-10-22T04:21:48.306Z,98692.81
2022-10-22T04:24:16.353Z,98713.69
2022-10-22T04:26:43.412Z,98714.53
2022-10-22T04:29:13.562Z,98728.59
2022-10-22T04:31:42.898Z,98738.53
2022-10-22T04:34:09.698Z,98748.34
2022-10-22T04:36:36.547Z,98718.25
2022-10-22T04:39:04.622Z,98737.78
2022-10-22T04:41:37.754Z,98728.31
2022-10-22T04:44:05.670Z,98729.97
2022-10-22T04:46:35.544Z,98720.97
2022-10-22T04:49:03.902Z,98703.16
2022-10-22T04:51:31.993Z,98723.69
2022-10-22T04:53:59.058Z,98723.59
2022-10-22T04:56:30.152Z,98731.41
2022-10-22T04:59:00.347Z,98727.44
2022-10-22T05:01:42.712Z,98731.41
2022-10-22T05:04:14.608Z,98738.81
2022-10-22T05:06:41.618Z,98741.44
2022-10-22T05:09:14.636Z,98738.72
2022-10-22T05:11:46.185Z,98751.34
2022-10-22T05:14:13.259Z,98762.69
2022-10-22T05:16:40.168Z,98751.22
2022-10-22T05:19:08.129Z,98749.06
2022-10-22T05:21:35.704Z,98750.41
2022-10-22T05:24:03.959Z,98740.28
2022-10-22T05:26:30.789Z,98759.56
2022-10-22T05:28:57.649Z,98769.28
2022-10-22T05:31:24.567Z,98772.09
2022-10-22T05:33:51.367Z,98776.78
2022-10-22T05:36:21.900Z,98795.03
2022-10-22T05:38:49.442Z,98785.03
2022-10-22T05:41:20.414Z,98805.44
2022-10-22T05:43:48.231Z,98807.31
2022-10-22T05:46:22.483Z,98826.53
2022-10-22T05:48:59.115Z,98824.66
2022-10-22T05:51:29.153Z,98830.06
2022-10-22T05:54:00.529Z,98839.44
2022-10-22T05:56:30.173Z,98844.03
2022-10-22T05:58:57.004Z,98838.06
2022-10-22T06:01:31.512Z,98849.22
2022-10-22T06:04:05.098Z,98852.78
2022-10-22T06:06:53.087Z,98859.34
2022-10-22T06:09:26.414Z,98872.81
2022-10-22T06:11:53.309Z,98865.09
2022-10-22T06:14:21.161Z,98859.34
2022-10-22T06:16:49.000Z,98865.94
2022-10-22T06:19:20.422Z,98872.81
2022-10-22T06:21:48.018Z,98876.16
2022-10-22T06:24:15.693Z,98877.47
2022-10-22T06:26:42.519Z,98871.41
2022-10-22T06:29:09.847Z,98885.41
2022-10-22T06:31:36.843Z,98895.81
2022-10-22T06:34:11.751Z,98904.50
2022-10-22T06:36:39.359Z,98901.97
2022-10-22T06:39:06.137Z,98901.44
2022-10-22T06:41:33.015Z,98910.72
2022-10-22T06:43:59.977Z,98904.13
2022-10-22T06:46:27.050Z,98894.75
2022-10-22T06:48:59.173Z,98919.19
2022-10-22T06:51:27.175Z,98911.13
2022-10-22T06:53:55.684Z,98913.00
2022-10-22T06:56:25.793Z,98916.88
2022-10-22T06:58:55.421Z,98924.50
2022-10-22T07:01:27.136Z,98924.50
2022-10-22T07:03:54.814Z,98927.63
2022-10-22T07:06:23.125Z,98931.00
2022-10-22T07:08:50.149Z,98934.50
2022-10-22T07:11:26.307Z,98924.72
2022-10-22T07:13:56.215Z,98941.94
2022-10-22T07:16:24.857Z,98952.72
2022-10-22T07:18:54.853Z,98963.34
2022-10-22T07:21:22.667Z,98958.88
2022-10-22T07:23:50.017Z,98954.78
2022-10-22T07:26:17.773Z,98947.91
2022-10-22T07:28:44.582Z,98961.38
2022-10-22T07:31:13.527Z,98962.00
2022-10-22T07:33:40.753Z,98968.16
2022-10-22T07:36:17.147Z,98948.44
2022-10-22T07:38:49.799Z,98959.19
2022-10-22T07:41:17.371Z,98964.41
2022-10-22T07:43:44.247Z,98949.19
2022-10-22T07:46:11.535Z,98964.84
2022-10-22T07:48:38.499Z,98960.47
2022-10-22T07:51:05.757Z,98961.41
2022-10-22T07:53:33.322Z,98969.78
2022-10-22T07:56:00.235Z,98970.16
2022-10-22T07:58:26.988Z,98972.78
2022-10-22T08:01:00.644Z,98983.00
2022-10-22T08:03:29.101Z,98990.72
2022-10-22T08:05:55.943Z,98996.56
2022-10-22T08:08:25.871Z,98993.03
2022-10-22T08:10:58.670Z,99003.09
2022-10-22T08:13:27.378Z,98997.22
2022-10-22T08:15:57.282Z,99003.94
2022-10-22T08:18:25.377Z,98994.50
2022-10-22T08:20:52.478Z,99002.59
2022-10-22T08:23:21.203Z,98999.16
2022-10-22T08:25:51.077Z,98993.19
2022-10-22T08:28:21.149Z,98997.06
2022-10-22T08:30:49.233Z,99002.19
2022-10-22T08:33:15.962Z,98995.22
2022-10-22T08:35:42.742Z,98979.50
2022-10-22T08:38:09.509Z,98998.56
2022-10-22T08:40:40.394Z,98985.19
2022-10-22T08:43:18.036Z,98998.34
2022-10-22T08:46:22.898Z,98995.63
2022-10-22T08:48:56.200Z,98997.31
2022-10-22T08:51:27.790Z,98983.75
2022-10-22T08:54:28.195Z,98998.78
2022-10-22T08:57:51.383Z,99006.50
2022-10-22T09:00:48.046Z,99004.63
2022-10-22T09:03:57.521Z,98996.06
2022-10-22T09:06:27.578Z,98999.63
2022-10-22T09:08:56.886Z,99010.47
2022-10-22T09:11:31.860Z,99002.66
2022-10-22T09:14:00.317Z,99000.16
2022-10-22T09:16:36.354Z,99007.59
2022-10-22T09:19:15.573Z,99010.09
2022-10-22T09:22:45.843Z,99004.88
2022-10-22T09:25:24.407Z,99004.41
2022-10-22T09:27:52.640Z,99022.59
2022-10-22T09:30:29.798Z,99007.59
2022-10-22T09:33:09.990Z,99019.78
2022-10-22T09:35:56.684Z,99015.31
2022-10-22T09:38:28.889Z,99024.72
2022-10-22T09:40:59.381Z,99007.69
2022-10-22T09:43:26.546Z,99019.09
2022-10-22T09:46:08.652Z,99026.91
2022-10-22T09:49:04.162Z,99021.81
2022-10-22T09:51:49.480Z,99013.88
2022-10-22T09:54:33.225Z,99035.56
2022-10-22T09:57:22.045Z,99022.84
2022-10-22T09:59:51.387Z,99034.88
2022-10-22T10:02:43.995Z,99023.69
2022-10-22T10:05:23.291Z,99036.84
2022-10-22T10:07:50.091Z,99028.69
2022-10-22T10:10:52.258Z,99040.41
2022-10-22T10:13:38.400Z,99037.97
2022-10-22T10:16:43.336Z,99031.34
2022-10-22T10:19:35.254Z,99035.94
2022-10-22T10:22:18.843Z,99027.88
2022-10-22T10:25:00.617Z,99036.72
2022-10-22T10:27:51.528Z,99036.94
2022-10-22T10:30:21.605Z,99042.69
2022-10-22T10:33:11.772Z,99042.56
2022-10-22T10:36:36.062Z,99044.03
2022-10-22T10:39:30.182Z,99047.16
2022-10-22T10:42:33.706Z,99047.44
2022-10-22T10:45:43.975Z,99048.03
2022-10-22T10:48:31.604Z,99048.53
2022-10-22T10:51:25.162Z,99057.84
2022-10-22T10:54:22.677Z,99051.78
2022-10-22T10:56:57.714Z,99053.88
2022-10-22T11:00:11.782Z,99044.53
2022-10-22T11:03:09.857Z,99050.38
2022-10-22T11:05:48.681Z,99045.50
2022-10-22T11:08:23.590Z,99026.88
2022-10-22T11:11:11.189Z,99049.22
2022-10-22T11:13:44.900Z,99043.63
2022-10-22T11:16:37.460Z,99038.97
2022-10-22T11:19:46.140Z,99041.88
2022-10-22T11:22:27.633Z,99037.22
2022-10-22T11:25:19.529Z,99042.38
2022-10-22T11:28:02.649Z,99034.31
2022-10-22T11:30:36.142Z,99040.84
2022-10-22T11:33:10.752Z,99032.78
2022-10-22T11:35:46.280Z,99029.44
2022-10-22T11:38:18.195Z,99038.84
2022-10-22T11:41:00.958Z,99036.72
2022-10-22T11:44:04.557Z,99033.41
2022-10-22T11:46:57.901Z,99025.78
2022-10-22T11:49:59.770Z,99027.00
2022-10-22T11:52:32.804Z,99030.56
2022-10-22T11:55:03.422Z,99005.06
2022-10-22T11:57:38.525Z,99006.75
2022-10-22T12:00:40.699Z,99022.84
2022-10-22T12:03:30.775Z,99016.63
2022-10-22T12:06:12.743Z,99014.00
2022-10-22T12:08:52.896Z,99014.84
2022-10-22T12:11:19.763Z,99015.09
2022-10-22T12:14:14.364Z,99022.13
2022-10-22T12:17:12.860Z,98996.47
2022-10-22T12:19:43.877Z,99016.50
2022-10-22T12:22:23.814Z,99010.91
2022-10-22T12:25:00.721Z,99009.84
2022-10-22T12:27:35.710Z,99017.59
2022-10-22T12:30:23.539Z,99009.59
2022-10-22T12:32:58.234Z,99008.75
2022-10-22T12:35:29.774Z,99006.00
2022-10-22T12:38:00.904Z,99002.22
2022-10-22T12:40:31.743Z,99005.06
2022-10-22T12:43:01.810Z,99010.88
2022-10-22T12:45:31.932Z,98977.91
2022-10-22T12:48:04.131Z,99008.63
2022-10-22T12:50:40.365Z,99001.47
2022-10-22T12:53:22.050Z,99002.19
2022-10-22T12:55:52.382Z,99003.84
2022-10-22T12:58:38.575Z,99000.41
2022-10-22T13:01:05.787Z,98983.34
2022-10-22T13:03:41.607Z,98998.97
2022-10-22T13:06:25.705Z,98994.53
2022-10-22T13:09:25.418Z,98988.69
2022-10-22T13:12:06.964Z,98990.97
2022-10-22T13:14:35.647Z,98987.38
2022-10-22T13:17:16.297Z,98998.72
2022-10-22T13:19:55.292Z,98997.88
2022-10-22T13:22:42.000Z,98981.19
2022-10-22T13:25:19.530Z,98989.28
2022-10-22T13:27:50.299Z,98994.53
2022-10-22T13:30:24.839Z,98994.31
2022-10-22T13:33:23.335Z,98987.38
2022-10-22T13:35:50.182Z,98978.31
2022-10-22T13:38:20.400Z,98982.25
2022-10-22T13:40:47.893Z,98968.81
2022-10-22T13:43:16.335Z,98984.63
2022-10-22T13:45:44.571Z,98962.38
2022-10-22T13:48:21.692Z,98981.88
2022-10-22T13:50:50.356Z,98981.66
2022-10-22T13:53:22.752Z,98983.31
2022-10-22T13:55:50.318Z,98984.16
2022-10-22T13:58:20.467Z,98976.63
2022-10-22T14:00:56.937Z,98990.91
2022-10-22T14:03:30.308Z,98984.97
2022-10-22T14:05:57.582Z,98972.09
2022-10-22T14:08:26.546Z,98985.44
2022-10-22T14:10:54.001Z,98975.06
2022-10-22T14:13:21.300Z,98978.38
2022-10-22T14:15:51.067Z,98972.44
2022-10-22T14:18:26.772Z,98972.44
2022-10-22T14:20:57.333Z,98980.41
2022-10-22T14:23:28.439Z,98981.81
2022-10-22T14:25:56.307Z,98980.75
2022-10-22T14:28:23.085Z,98992.53
2022-10-22T14:30:50.546Z,98983.59
2022-10-22T14:33:23.830Z,98976.31
2022-10-22T14:35:52.715Z,98984.28
2022-10-22T14:38:20.107Z,98971.03
2022-10-22T14:40:47.428Z,98984.34
2022-10-22T14:43:21.706Z,98985.19
2022-10-22T14:45:49.074Z,98977.66
2022-10-22T14:48:16.298Z,98993.78
2022-10-22T14:50:45.057Z,98979.34
2022-10-22T14:53:13.490Z,98986.34
2022-10-22T14:55:44.005Z,98987.16
2022-10-22T14:58:12.313Z,98981.59
2022-10-22T15:00:42.321Z,98999.41
2022-10-22T15:03:09.642Z,98999.03
2022-10-22T15:05:43.308Z,99000.56
2022-10-22T15:08:11.161Z,99004.34
2022-10-22T15:10:38.093Z,98996.47
2022-10-22T15:13:04.924Z,98985.06
2022-10-22T15:15:36.648Z,98999.22
2022-10-22T15:18:06.174Z,99006.34
2022-10-22T15:20:32.959Z,98992.38
2022-10-22T15:23:00.440Z,99010.94
2022-10-22T15:25:27.649Z,99011.50
2022-10-22T15:27:58.467Z,99002.75
2022-10-22T15:30:31.745Z,99006.53
2022-10-22T15:32:58.508Z,99004.75
2022-10-22T15:35:28.403Z,99007.88
2022-10-22T15:37:55.419Z,99000.38
2022-10-22T15:40:22.226Z,98990.91
2022-10-22T15:42:49.027Z,98991.16
2022-10-22T15:45:16.102Z,98997.22
2022-10-22T15:47:48.066Z,99008.56
2022-10-22T15:50:15.310Z,99005.38
2022-10-22T15:52:42.273Z,99006.69
2022-10-22T15:55:10.551Z,99007.09
2022-10-22T15:57:38.597Z,99003.31
2022-10-22T16:00:07.389Z,99015.84
2022-10-22T16:02:34.292Z,99011.13
2022-10-22T16:05:01.099Z,99005.50
2022-10-22T16:07:27.992Z,98992.66
2022-10-22T16:09:59.875Z,98998.97
2022-10-22T16:12:26.721Z,99014.47
2022-10-22T16:14:53.462Z,99011.50
2022-10-22T16:17:20.233Z,98998.78
2022-10-22T16:19:48.213Z,99016.94
2022-10-22T16:22:15.702Z,99014.66
2022-10-22T16:24:42.835Z,99017.41
2022-10-22T16:27:10.531Z,99021.34
2022-10-22T16:29:38.958Z,99020.06
2022-10-22T16:32:06.152Z,99019.81
2022-10-22T16:34:32.958Z,98995.06
2022-10-22T16:36:59.766Z,99020.91
2022-10-22T16:39:26.529Z,99012.09
2022-10-22T16:41:53.320Z,99019.97
2022-10-22T16:44:20.107Z,99012.34
2022-10-22T16:46:46.965Z,99035.00
2022-10-22T16:49:13.866Z,99033.88
2022-10-22T16:51:40.664Z,99027.09
2022-10-22T16:54:11.314Z,99028.75
2022-10-22T16:56:39.374Z,99038.63
2022-10-22T16:59:07.325Z,99047.19
2022-10-22T17:01:39.501Z,99050.19
2022-10-22T17:04:07.621Z,99043.34
2022-10-22T17:06:34.486Z,99056.34
2022-10-22T17:09:01.538Z,99052.16
2022-10-22T17:11:30.181Z,99055.31
2022-10-22T17:13:57.149Z,99061.16
2022-10-22T17:16:24.967Z,99047.34
2022-10-22T17:18:54.182Z,99059.97
2022-10-22T17:21:21.701Z,99061.00
2022-10-22T17:23:49.200Z,99052.41
2022-10-22T17:26:22.694Z,99037.28
2022-10-22T17:28:50.033Z,99040.31
2022-10-22T17:31:37.407Z,99048.41
2022-10-22T17:34:07.444Z,99050.81
2022-10-22T17:36:36.067Z,99074.06
2022-10-22T17:39:07.147Z,99074.47
2022-10-22T17:41:36.589Z,99080.56
2022-10-22T17:44:06.996Z,99081.59
2022-10-22T17:46:33.855Z,99073.72
2022-10-22T17:49:04.675Z,99088.66
2022-10-22T17:51:32.127Z,99097.66
2022-10-22T17:53:59.264Z,99097.16
2022-10-22T17:56:32.261Z,99099.28
2022-10-22T17:59:01.570Z,99082.06
2022-10-22T18:01:35.109Z,99105.16
2022-10-22T18:04:08.029Z,99109.91
2022-10-22T18:06:35.710Z,99111.25
2022-10-22T18:09:08.137Z,99113.13
2022-10-22T18:11:37.218Z,99107.06
2022-10-22T18:14:04.761Z,99113.34
2022-10-22T18:16:31.574Z,99102.28
2022-10-22T18:18:58.706Z,99086.50
2022-10-22T18:21:28.661Z,99107.06
2022-10-22T18:23:57.432Z,99107.63
2022-10-22T18:26:26.740Z,99100.50
2022-10-22T18:28:54.959Z,99096.22
2022-10-22T18:31:24.732Z,99101.03
2022-10-22T18:33:52.018Z,99097.91
2022-10-22T18:36:22.024Z,99098.13
2022-10-22T18:38:54.946Z,99089.19
2022-10-22T18:41:22.273Z,99075.50
2022-10-22T18:43:57.292Z,99095.34
2022-10-22T18:46:25.979Z,99086.78
2022-10-22T18:48:57.169Z,99088.84
2022-10-22T18:51:26.700Z,99090.13
2022-10-22T18:54:11.528Z,99078.44
2022-10-22T18:56:43.431Z,99098.09
2022-10-22T18:59:24.802Z,99090.44
2022-10-22T19:01:59.365Z,99096.81
2022-10-22T19:04:36.687Z,99085.84
2022-10-22T19:07:05.375Z,99064.19
2022-10-22T19:09:32.397Z,99073.59
2022-10-22T19:11:59.577Z,99095.03
2022-10-22T19:14:26.474Z,99094.28
2022-10-22T19:16:53.540Z,99086.03
2022-10-22T19:19:22.285Z,99082.03
2022-10-22T19:21:49.330Z,99084.13
2022-10-22T19:24:19.605Z,99082.84
2022-10-22T19:26:48.243Z,99092.88
2022-10-22T19:29:17.994Z,99090.47
2022-10-22T19:31:45.193Z,99072.91
2022-10-22T19:34:11.931Z,99094.03
2022-10-22T19:36:38.738Z,99078.34
2022-10-22T19:39:06.688Z,99097.03
2022-10-22T19:41:34.791Z,99087.53
2022-10-22T19:44:01.728Z,99093.78
2022-10-22T19:46:32.337Z,99074.56
2022-10-22T19:48:59.584Z,99093.34
2022-10-22T19:51:33.832Z,99091.69
2022-10-22T19:54:07.224Z,99093.03
2022-10-22T19:56:35.792Z,99072.72
2022-10-22T19:59:05.467Z,99087.25
2022-10-22T20:01:32.514Z,99082.63
2022-10-22T20:04:00.197Z,99074.91
2022-10-22T20:06:27.281Z,99084.13
2022-10-22T20:08:56.130Z,99085.78
2022-10-22T20:11:28.147Z,99095.69
2022-10-22T20:13:56.478Z,99101.75
2022-10-22T20:16:28.308Z,99094.13
2022-10-22T20:18:56.045Z,99102.03
2022-10-22T20:21:22.894Z,99091.94
2022-10-22T20:23:53.492Z,99100.88
2022-10-22T20:26:21.290Z,99111.16
2022-10-22T20:28:48.086Z,99098.59
2022-10-22T20:31:20.508Z,99107.06
2022-10-22T20:33:48.410Z,99108.16
2022-10-22T20:36:23.539Z,99094.78
2022-10-22T20:38:51.633Z,99102.50
2022-10-22T20:41:22.150Z,99105.53
2022-10-22T20:43:51.526Z,99103.72
2022-10-22T20:46:29.057Z,99108.13
2022-10-22T20:49:01.468Z,99098.16
2022-10-22T20:51:29.095Z,99109.25
2022-10-22T20:53:56.150Z,99116.41
2022-10-22T20:56:23.301Z,99099.69
2022-10-22T20:58:56.554Z,99116.81
2022-10-22T21:01:24.215Z,99103.03
2022-10-22T21:03:53.076Z,99085.81
2022-10-22T21:06:23.030Z,99111.22
2022-10-22T21:08:51.520Z,99075.88
2022-10-22T21:11:19.897Z,99098.56
2022-10-22T21:13:47.153Z,99103.97
2022-10-22T21:16:15.652Z,99102.94
2022-10-22T21:18:42.497Z,99098.78
2022-10-22T21:21:10.564Z,99107.50
2022-10-22T21:23:37.542Z,99099.88
2022-10-22T21:26:05.387Z,99092.25
2022-10-22T21:28:36.894Z,99092.25
2022-10-22T21:31:10.203Z,99091.59
2022-10-22T21:33:40.184Z,99083.22
2022-10-22T21:36:09.106Z,99084.44
2022-10-22T21:38:37.599Z,99097.19
2022-10-22T21:41:10.326Z,99100.25
2022-10-22T21:43:39.084Z,99105.28
2022-10-22T21:46:13.678Z,99103.63
2022-10-22T21:48:40.638Z,99070.09
2022-10-22T21:51:12.449Z,99102.97
2022-10-22T21:53:39.911Z,99087.03
2022-10-22T21:56:08.579Z,99097.09
2022-10-22T21:58:36.204Z,99094.84
2022-10-22T22:01:04.002Z,99106.00
2022-10-22T22:03:30.862Z,99098.19
2022-10-22T22:06:04.812Z,99101.66
2022-10-22T22:08:32.467Z,99107.03
2022-10-22T22:11:10.496Z,99092.78
2022-10-22T22:13:37.652Z,99078.19
2022-10-22T22:16:11.474Z,99102.84
2022-10-22T22:18:39.958Z,99088.63
2022-10-22T22:21:11.010Z,99094.28
2022-10-22T22:23:40.597Z,99092.53
2022-10-22T22:26:08.414Z,99088.53
2022-10-22T22:28:36.348Z,99080.91
2022-10-22T22:31:34.583Z,99096.78
2022-10-22T22:34:14.402Z,99088.31
2022-10-22T22:36:46.956Z,99093.44
2022-10-22T22:39:18.866Z,99078.66
2022-10-22T22:41:46.649Z,99074.56
2022-10-22T22:44:13.849Z,99080.25
2022-10-22T22:46:41.221Z,99096.53
2022-10-22T22:49:08.521Z,99090.75
2022-10-22T22:51:35.360Z,99074.69
2022-10-22T22:54:02.272Z,99079.84
2022-10-22T22:56:32.274Z,99086.44
2022-10-22T22:58:59.102Z,99070.53
2022-10-22T23:01:30.238Z,99088.34
2022-10-22T23:04:01.369Z,99077.59
2022-10-22T23:06:32.335Z,99079.84
2022-10-22T23:08:59.683Z,99083.44
2022-10-22T23:11:28.078Z,99073.22
2022-10-22T23:14:01.914Z,99077.88
2022-10-22T23:16:36.628Z,99064.72
2022-10-22T23:19:05.093Z,99062.59
2022-10-22T23:21:38.453Z,99066.88
2022-10-22T23:24:11.542Z,99066.13
2022-10-22T23:26:42.519Z,99056.81
2022-10-22T23:29:13.265Z,99034.03
2022-10-22T23:31:40.850Z,99022.59
2022-10-22T23:34:08.557Z,99044.00
2022-10-22T23:36:36.712Z,99047.53
2022-10-22T23:39:10.233Z,99048.72
2022-10-22T23:41:37.738Z,99045.66
2022-10-22T23:44:05.819Z,99039.31
2022-10-22T23:46:33.378Z,99049.34
2022-10-22T23:49:01.129Z,99040.31
2022-10-22T23:51:28.414Z,99036.31
2022-10-22T23:53:58.452Z,99041.31
2022-10-22T23:56:26.130Z,99046.38
2022-10-22T23:58:54.188Z,99047.28
